createdAt,value
2018-09-18T00:02:21.644Z,100020.44
2018-09-18T00:04:51.316Z,100017.49
2018-09-18T00:07:20.980Z,100017.37
2018-09-18T00:09:50.656Z,100017.85
2018-09-18T00:12:20.330Z,100015.36
2018-09-18T00:14:49.993Z,100012.73
2018-09-18T00:17:19.681Z,100012.36
2018-09-18T00:19:49.336Z,100002.45
2018-09-18T00:22:19.076Z,100002.58
2018-09-18T00:24:48.742Z,99998.25
2018-09-18T00:27:18.396Z,100000.13
2018-09-18T00:29:48.069Z,100000.45
2018-09-18T00:32:17.935Z,100005.73
2018-09-18T00:34:47.602Z,100001.73
2018-09-18T00:37:17.344Z,100005.00
2018-09-18T00:39:47.011Z,100000.66
2018-09-18T00:42:16.655Z,99991.91
2018-09-18T00:44:46.337Z,99994.61
2018-09-18T00:47:15.976Z,99993.59
2018-09-18T00:49:45.632Z,99989.21
2018-09-18T00:52:15.338Z,99990.11
2018-09-18T00:54:44.979Z,99990.84
2018-09-18T00:57:14.681Z,99985.56
2018-09-18T00:59:44.327Z,99980.66
2018-09-18T01:02:14.008Z,99983.48
2018-09-18T01:04:43.654Z,99980.58
2018-09-18T01:07:13.331Z,99983.69
2018-09-18T01:09:42.974Z,99975.06
2018-09-18T01:12:12.657Z,99976.61
2018-09-18T01:14:42.381Z,99975.91
2018-09-18T01:17:12.011Z,99972.19
2018-09-18T01:19:41.732Z,99968.14
2018-09-18T01:22:11.368Z,99966.84
2018-09-18T01:24:41.080Z,99965.89
2018-09-18T01:27:10.735Z,99963.27
2018-09-18T01:29:40.368Z,99969.77
2018-09-18T01:32:10.052Z,99968.50
2018-09-18T01:34:39.700Z,99964.45
2018-09-18T01:37:09.343Z,99963.55
2018-09-18T01:39:39.022Z,99965.59
2018-09-18T01:42:08.680Z,99962.78
2018-09-18T01:44:38.312Z,99955.33
2018-09-18T01:47:07.992Z,99959.88
2018-09-18T01:49:37.632Z,99961.63
2018-09-18T01:52:07.324Z,99961.30
2018-09-18T01:54:36.947Z,99956.76
2018-09-18T01:57:07.589Z,99961.55
2018-09-18T01:59:37.283Z,99961.63
2018-09-18T02:02:06.964Z,99964.08
2018-09-18T02:04:36.648Z,99962.28
2018-09-18T02:07:06.331Z,99949.08
2018-09-18T02:09:35.996Z,99953.50
2018-09-18T02:12:05.649Z,99953.30
2018-09-18T02:14:35.300Z,99954.36
2018-09-18T02:17:04.964Z,99954.93
2018-09-18T02:19:34.664Z,99953.50
2018-09-18T02:22:04.327Z,99952.16
2018-09-18T02:24:33.996Z,99951.95
2018-09-18T02:27:03.677Z,99947.48
2018-09-18T02:29:33.360Z,99949.08
2018-09-18T02:32:03.004Z,99947.98
2018-09-18T02:34:32.692Z,99947.78
2018-09-18T02:37:02.360Z,99941.88
2018-09-18T02:39:32.022Z,99943.39
2018-09-18T02:42:01.699Z,99945.77
2018-09-18T02:44:31.353Z,99936.07
2018-09-18T02:47:01.100Z,99940.89
2018-09-18T02:49:30.744Z,99942.69
2018-09-18T02:52:00.368Z,99941.30
2018-09-18T02:54:30.827Z,99935.59
2018-09-18T02:57:00.485Z,99933.91
2018-09-18T02:59:30.196Z,99936.09
2018-09-18T03:01:59.847Z,99931.81
2018-09-18T03:04:29.497Z,99929.41
2018-09-18T03:06:59.248Z,99935.28
2018-09-18T03:09:28.887Z,99927.76
2018-09-18T03:11:58.519Z,99936.25
2018-09-18T03:14:28.204Z,99936.19
2018-09-18T03:16:57.864Z,99933.89
2018-09-18T03:19:27.520Z,99931.46
2018-09-18T03:21:57.197Z,99929.98
2018-09-18T03:24:26.872Z,99930.05
2018-09-18T03:26:56.543Z,99931.94
2018-09-18T03:29:26.236Z,99932.33
2018-09-18T03:31:55.922Z,99934.12
2018-09-18T03:34:25.555Z,99921.33
2018-09-18T03:36:55.251Z,99924.73
2018-09-18T03:39:24.889Z,99921.62
2018-09-18T03:41:54.540Z,99914.31
2018-09-18T03:44:24.236Z,99910.47
2018-09-18T03:46:53.988Z,99913.56
2018-09-18T03:49:23.635Z,99909.19
2018-09-18T03:51:53.321Z,99900.98
2018-09-18T03:54:22.978Z,99901.67
2018-09-18T03:56:52.901Z,99907.39
2018-09-18T03:59:22.564Z,99903.59
2018-09-18T04:01:52.296Z,99901.84
2018-09-18T04:04:21.928Z,99903.20
2018-09-18T04:06:51.594Z,99899.92
2018-09-18T04:09:21.281Z,99897.09
2018-09-18T04:11:50.940Z,99896.88
2018-09-18T04:14:20.581Z,99896.75
2018-09-18T04:16:50.276Z,99894.80
2018-09-18T04:19:19.942Z,99892.19
2018-09-18T04:21:49.619Z,99891.11
2018-09-18T04:24:20.186Z,99891.48
2018-09-18T04:26:49.852Z,99894.05
2018-09-18T04:29:19.493Z,99891.42
2018-09-18T04:31:49.152Z,99891.63
2018-09-18T04:34:18.824Z,99892.91
2018-09-18T04:36:48.472Z,99892.35
2018-09-18T04:39:18.155Z,99893.58
2018-09-18T04:41:47.807Z,99893.09
2018-09-18T04:44:17.480Z,99893.45
2018-09-18T04:46:47.132Z,99888.31
2018-09-18T04:49:16.846Z,99886.14
2018-09-18T04:51:46.522Z,99884.04
2018-09-18T04:54:16.153Z,99887.44
2018-09-18T04:56:45.794Z,99891.94
2018-09-18T04:59:15.509Z,99885.56
2018-09-18T05:01:45.244Z,99893.20
2018-09-18T05:04:14.896Z,99880.25
2018-09-18T05:06:44.616Z,99886.86
2018-09-18T05:09:14.337Z,99878.97
2018-09-18T05:11:44.268Z,99883.59
2018-09-18T05:14:13.924Z,99884.19
2018-09-18T05:16:43.540Z,99877.74
2018-09-18T05:19:13.212Z,99880.89
2018-09-18T05:21:42.876Z,99884.04
2018-09-18T05:24:12.547Z,99882.04
2018-09-18T05:26:42.194Z,99882.11
2018-09-18T05:29:11.891Z,99882.89
2018-09-18T05:31:41.524Z,99882.24
2018-09-18T05:34:11.196Z,99877.30
2018-09-18T05:36:40.880Z,99877.92
2018-09-18T05:39:11.780Z,99876.53
2018-09-18T05:41:41.435Z,99883.39
2018-09-18T05:44:11.104Z,99874.05
2018-09-18T05:46:40.780Z,99879.08
2018-09-18T05:49:10.472Z,99878.37
2018-09-18T05:51:40.113Z,99878.22
2018-09-18T05:54:09.824Z,99877.81
2018-09-18T05:56:39.465Z,99878.66
2018-09-18T05:59:09.293Z,99877.44
2018-09-18T06:01:38.922Z,99875.67
2018-09-18T06:04:08.712Z,99872.19
2018-09-18T06:06:38.363Z,99871.70
2018-09-18T06:09:10.605Z,99870.87
2018-09-18T06:11:40.265Z,99868.94
2018-09-18T06:14:10.265Z,99866.80
2018-09-18T06:16:39.904Z,99866.20
2018-09-18T06:19:09.699Z,99862.62
2018-09-18T06:21:39.332Z,99865.96
2018-09-18T06:24:09.191Z,99866.65
2018-09-18T06:26:38.865Z,99864.34
2018-09-18T06:29:08.512Z,99863.45
2018-09-18T06:31:38.176Z,99867.23
2018-09-18T06:34:07.839Z,99869.52
2018-09-18T06:36:37.531Z,99865.59
2018-09-18T06:39:09.353Z,99868.19
2018-09-18T06:41:39.222Z,99872.67
2018-09-18T06:44:08.905Z,99868.42
2018-09-18T06:46:38.588Z,99872.06
2018-09-18T06:49:08.280Z,99864.02
2018-09-18T06:51:37.956Z,99873.35
2018-09-18T06:54:07.792Z,99869.16
2018-09-18T06:56:37.492Z,99867.75
2018-09-18T06:59:07.164Z,99871.56
2018-09-18T07:01:36.832Z,99869.05
2018-09-18T07:04:06.536Z,99877.87
2018-09-18T07:06:36.231Z,99871.46
2018-09-18T07:09:07.614Z,99871.14
2018-09-18T07:11:37.286Z,99868.57
2018-09-18T07:14:07.092Z,99866.55
2018-09-18T07:16:36.816Z,99859.41
2018-09-18T07:19:06.733Z,99860.61
2018-09-18T07:21:36.712Z,99859.88
2018-09-18T07:24:06.384Z,99853.45
2018-09-18T07:26:36.055Z,99858.78
2018-09-18T07:29:05.712Z,99856.49
2018-09-18T07:31:35.403Z,99862.16
2018-09-18T07:34:05.080Z,99860.83
2018-09-18T07:36:34.748Z,99859.48
2018-09-18T07:39:05.952Z,99864.11
2018-09-18T07:41:35.620Z,99856.63
2018-09-18T07:44:05.316Z,99853.47
2018-09-18T07:46:34.968Z,99853.45
2018-09-18T07:49:05.601Z,99853.91
2018-09-18T07:51:35.872Z,99858.21
2018-09-18T07:54:05.625Z,99860.23
2018-09-18T07:56:35.268Z,99855.08
2018-09-18T07:59:04.928Z,99855.90
2018-09-18T08:01:34.685Z,99856.58
2018-09-18T08:04:04.341Z,99856.62
2018-09-18T08:06:34.164Z,99853.56
2018-09-18T08:09:04.265Z,99852.43
2018-09-18T08:11:33.924Z,99845.06
2018-09-18T08:14:03.657Z,99840.94
2018-09-18T08:16:33.352Z,99827.72
2018-09-18T08:19:03.116Z,99836.36
2018-09-18T08:21:32.741Z,99836.18
2018-09-18T08:24:02.448Z,99833.08
2018-09-18T08:26:32.156Z,99841.93
2018-09-18T08:29:02.417Z,99834.33
2018-09-18T08:31:32.127Z,99832.49
2018-09-18T08:34:01.927Z,99831.19
2018-09-18T08:36:31.700Z,99833.32
2018-09-18T08:39:01.393Z,99833.00
2018-09-18T08:41:31.040Z,99833.28
2018-09-18T08:44:00.934Z,99838.39
2018-09-18T08:46:30.582Z,99831.25
2018-09-18T08:49:00.362Z,99836.80
2018-09-18T08:51:30.204Z,99836.89
2018-09-18T08:53:59.898Z,99841.55
2018-09-18T08:56:29.618Z,99834.53
2018-09-18T08:58:59.349Z,99838.38
2018-09-18T09:01:29.010Z,99835.58
2018-09-18T09:03:58.762Z,99838.20
2018-09-18T09:06:28.885Z,99836.59
2018-09-18T09:08:58.615Z,99835.40
2018-09-18T09:11:28.552Z,99832.52
2018-09-18T09:13:58.250Z,99835.59
2018-09-18T09:16:27.918Z,99830.27
2018-09-18T09:18:57.600Z,99824.36
2018-09-18T09:21:27.391Z,99823.48
2018-09-18T09:23:56.980Z,99811.03
2018-09-18T09:26:26.657Z,99806.06
2018-09-18T09:28:56.324Z,99810.10
2018-09-18T09:31:26.036Z,99812.16
2018-09-18T09:33:55.734Z,99807.88
2018-09-18T09:36:25.434Z,99810.95
2018-09-18T09:38:55.142Z,99805.64
2018-09-18T09:41:24.821Z,99795.30
2018-09-18T09:43:54.492Z,99802.53
2018-09-18T09:46:24.170Z,99798.68
2018-09-18T09:48:53.872Z,99795.71
2018-09-18T09:51:23.556Z,99795.50
2018-09-18T09:53:53.236Z,99783.79
2018-09-18T09:56:22.880Z,99787.36
2018-09-18T09:58:52.552Z,99781.56
2018-09-18T10:01:27.310Z,99774.17
2018-09-18T10:03:57.279Z,99770.36
2018-09-18T10:06:27.403Z,99767.66
2018-09-18T10:08:57.100Z,99769.28
2018-09-18T10:11:26.752Z,99770.65
2018-09-18T10:13:59.417Z,99764.89
2018-09-18T10:16:29.112Z,99764.64
2018-09-18T10:18:58.773Z,99767.95
2018-09-18T10:21:28.445Z,99760.80
2018-09-18T10:23:58.107Z,99763.77
2018-09-18T10:26:27.944Z,99765.42
2018-09-18T10:28:57.675Z,99763.49
2018-09-18T10:31:27.367Z,99759.92
2018-09-18T10:33:57.079Z,99754.36
2018-09-18T10:36:26.735Z,99756.30
2018-09-18T10:38:56.438Z,99759.86
2018-09-18T10:41:26.683Z,99751.25
2018-09-18T10:43:56.591Z,99743.76
2018-09-18T10:46:26.281Z,99739.05
2018-09-18T10:48:58.041Z,99736.02
2018-09-18T10:51:27.696Z,99733.25
2018-09-18T10:53:57.347Z,99736.80
2018-09-18T10:56:27.028Z,99735.03
2018-09-18T10:58:56.652Z,99728.97
2018-09-18T11:01:26.293Z,99726.44
2018-09-18T11:03:56.012Z,99713.61
2018-09-18T11:06:25.636Z,99714.91
2018-09-18T11:08:55.339Z,99714.36
2018-09-18T11:11:25.072Z,99710.44
2018-09-18T11:13:55.042Z,99705.76
2018-09-18T11:16:24.728Z,99706.41
2018-09-18T11:18:54.430Z,99710.13
2018-09-18T11:21:24.110Z,99705.19
2018-09-18T11:23:53.756Z,99709.27
2018-09-18T11:26:23.436Z,99704.08
2018-09-18T11:28:53.137Z,99702.41
2018-09-18T11:31:22.896Z,99699.70
2018-09-18T11:33:52.466Z,99694.16
2018-09-18T11:36:22.136Z,99693.19
2018-09-18T11:38:51.815Z,99691.02
2018-09-18T11:41:21.496Z,99688.74
2018-09-18T11:43:51.139Z,99694.43
2018-09-18T11:46:20.814Z,99678.98
2018-09-18T11:48:50.520Z,99679.69
2018-09-18T11:51:20.597Z,99677.66
2018-09-18T11:53:50.241Z,99671.95
2018-09-18T11:56:19.928Z,99666.47
2018-09-18T11:58:49.564Z,99658.20
2018-09-18T12:01:19.260Z,99659.49
2018-09-18T12:03:48.901Z,99654.56
2018-09-18T12:06:18.528Z,99649.84
2018-09-18T12:08:48.247Z,99653.95
2018-09-18T12:11:18.293Z,99647.17
2018-09-18T12:13:48.180Z,99649.42
2018-09-18T12:16:17.812Z,99648.01
2018-09-18T12:18:47.452Z,99643.11
2018-09-18T12:21:17.150Z,99637.78
2018-09-18T12:23:46.864Z,99640.60
2018-09-18T12:26:16.502Z,99634.27
2018-09-18T12:28:46.263Z,99635.70
2018-09-18T12:31:15.904Z,99627.19
2018-09-18T12:33:45.536Z,99624.65
2018-09-18T12:36:15.292Z,99620.61
2018-09-18T12:38:44.929Z,99623.33
2018-09-18T12:41:14.574Z,99614.54
2018-09-18T12:43:44.260Z,99616.45
2018-09-18T12:46:13.945Z,99613.37
2018-09-18T12:48:43.645Z,99619.36
2018-09-18T12:51:13.400Z,99612.00
2018-09-18T12:53:43.072Z,99605.72
2018-09-18T12:56:12.886Z,99609.69
2018-09-18T12:58:42.420Z,99602.54
2018-09-18T13:01:12.060Z,99587.86
2018-09-18T13:03:41.729Z,99588.81
2018-09-18T13:06:11.467Z,99595.92
2018-09-18T13:08:41.107Z,99599.39
2018-09-18T13:11:10.793Z,99596.67
2018-09-18T13:13:40.517Z,99598.25
2018-09-18T13:16:10.183Z,99591.58
2018-09-18T13:18:39.917Z,99592.77
2018-09-18T13:21:09.603Z,99585.66
2018-09-18T13:23:39.263Z,99588.34
2018-09-18T13:26:09.161Z,99584.08
2018-09-18T13:28:38.838Z,99585.70
2018-09-18T13:31:08.528Z,99578.00
2018-09-18T13:33:38.169Z,99573.20
2018-09-18T13:36:07.862Z,99567.60
2018-09-18T13:38:37.512Z,99571.20
2018-09-18T13:41:07.225Z,99569.11
2018-09-18T13:43:36.862Z,99566.13
2018-09-18T13:46:06.600Z,99561.31
2018-09-18T13:48:36.273Z,99566.19
2018-09-18T13:51:05.956Z,99560.94
2018-09-18T13:53:35.668Z,99554.46
2018-09-18T13:56:05.379Z,99553.94
2018-09-18T13:58:35.064Z,99549.06
2018-09-18T14:01:04.766Z,99555.97
2018-09-18T14:03:34.457Z,99556.64
2018-09-18T14:06:04.088Z,99549.97
2018-09-18T14:08:33.765Z,99554.61
2018-09-18T14:11:03.423Z,99548.92
2018-09-18T14:13:33.120Z,99540.98
2018-09-18T14:16:02.757Z,99541.01
2018-09-18T14:18:32.404Z,99546.82
2018-09-18T14:21:02.177Z,99544.09
2018-09-18T14:23:31.810Z,99542.42
2018-09-18T14:26:01.513Z,99540.42
2018-09-18T14:28:31.136Z,99541.19
2018-09-18T14:31:00.788Z,99548.94
2018-09-18T14:33:30.441Z,99545.05
2018-09-18T14:36:00.056Z,99543.00
2018-09-18T14:38:29.738Z,99543.49
2018-09-18T14:40:59.468Z,99545.56
2018-09-18T14:43:29.162Z,99553.81
2018-09-18T14:45:58.800Z,99546.84
2018-09-18T14:48:28.476Z,99543.50
2018-09-18T14:50:58.231Z,99545.58
2018-09-18T14:53:27.921Z,99544.94
2018-09-18T14:55:57.558Z,99546.81
2018-09-18T14:58:27.256Z,99537.05
2018-09-18T15:00:56.892Z,99539.25
2018-09-18T15:03:26.588Z,99537.19
2018-09-18T15:05:56.232Z,99535.36
2018-09-18T15:08:25.891Z,99543.20
2018-09-18T15:10:55.547Z,99541.08
2018-09-18T15:13:25.177Z,99535.87
2018-09-18T15:15:54.895Z,99538.31
2018-09-18T15:18:24.536Z,99540.41
2018-09-18T15:20:54.221Z,99537.77
2018-09-18T15:23:23.864Z,99533.48
2018-09-18T15:25:53.548Z,99537.41
2018-09-18T15:28:23.201Z,99539.41
2018-09-18T15:30:52.868Z,99543.33
2018-09-18T15:33:22.542Z,99545.25
2018-09-18T15:35:52.180Z,99549.70
2018-09-18T15:38:21.883Z,99543.86
2018-09-18T15:40:51.532Z,99542.03
2018-09-18T15:43:21.196Z,99544.27
2018-09-18T15:45:50.919Z,99544.58
2018-09-18T15:48:20.633Z,99544.80
2018-09-18T15:50:50.245Z,99539.19
2018-09-18T15:53:19.943Z,99535.79
2018-09-18T15:55:49.609Z,99533.12
2018-09-18T15:58:19.334Z,99537.88
2018-09-18T16:00:48.986Z,99534.44
2018-09-18T16:03:18.689Z,99529.27
2018-09-18T16:05:48.348Z,99523.56
2018-09-18T16:08:18.024Z,99530.80
2018-09-18T16:10:47.672Z,99523.33
2018-09-18T16:13:17.336Z,99532.30
2018-09-18T16:15:47.031Z,99521.48
2018-09-18T16:18:16.667Z,99519.88
2018-09-18T16:20:46.329Z,99524.44
2018-09-18T16:23:16.046Z,99518.23
2018-09-18T16:25:45.701Z,99518.03
2018-09-18T16:28:15.412Z,99522.20
2018-09-18T16:30:45.109Z,99518.68
2018-09-18T16:33:14.728Z,99529.20
2018-09-18T16:35:44.421Z,99527.45
2018-09-18T16:38:14.056Z,99523.92
2018-09-18T16:40:43.764Z,99527.11
2018-09-18T16:43:13.446Z,99525.12
2018-09-18T16:45:43.144Z,99528.87
2018-09-18T16:48:12.788Z,99532.29
2018-09-18T16:50:42.450Z,99537.38
2018-09-18T16:53:12.117Z,99538.20
2018-09-18T16:55:41.794Z,99538.88
2018-09-18T16:58:11.476Z,99546.09
2018-09-18T17:00:41.186Z,99547.27
2018-09-18T17:03:10.882Z,99543.29
2018-09-18T17:05:40.580Z,99548.52
2018-09-18T17:08:10.292Z,99558.73
2018-09-18T17:10:39.951Z,99562.12
2018-09-18T17:13:09.645Z,99558.33
2018-09-18T17:15:39.322Z,99561.69
2018-09-18T17:18:09.008Z,99562.88
2018-09-18T17:20:38.652Z,99567.88
2018-09-18T17:23:08.325Z,99567.97
2018-09-18T17:25:37.981Z,99568.54
2018-09-18T17:28:07.688Z,99577.31
2018-09-18T17:30:37.412Z,99570.24
2018-09-18T17:33:07.100Z,99577.15
2018-09-18T17:35:36.768Z,99580.19
2018-09-18T17:38:06.652Z,99586.31
2018-09-18T17:40:36.358Z,99589.36
2018-09-18T17:43:06.053Z,99588.31
2018-09-18T17:45:35.688Z,99590.49
2018-09-18T17:48:05.385Z,99603.16
2018-09-18T17:50:35.081Z,99610.61
2018-09-18T17:53:04.815Z,99608.42
2018-09-18T17:55:34.489Z,99611.98
2018-09-18T17:58:04.564Z,99616.66
2018-09-18T18:00:34.242Z,99611.98
2018-09-18T18:03:03.906Z,99617.23
2018-09-18T18:05:33.611Z,99619.41
2018-09-18T18:08:03.321Z,99618.05
2018-09-18T18:10:33.015Z,99618.28
2018-09-18T18:13:02.651Z,99624.05
2018-09-18T18:15:32.319Z,99624.31
2018-09-18T18:18:02.661Z,99628.70
2018-09-18T18:20:32.568Z,99632.81
2018-09-18T18:23:02.233Z,99641.30
2018-09-18T18:25:31.878Z,99637.47
2018-09-18T18:28:01.524Z,99639.66
2018-09-18T18:30:31.240Z,99642.13
2018-09-18T18:33:00.916Z,99650.09
2018-09-18T18:35:30.647Z,99660.20
2018-09-18T18:38:00.280Z,99653.61
2018-09-18T18:40:29.923Z,99653.86
2018-09-18T18:42:59.622Z,99661.23
2018-09-18T18:45:29.269Z,99663.67
2018-09-18T18:47:59.045Z,99670.47
2018-09-18T18:50:28.631Z,99670.70
2018-09-18T18:52:58.288Z,99675.88
2018-09-18T18:55:27.982Z,99677.46
2018-09-18T18:57:57.619Z,99686.75
2018-09-18T19:00:27.517Z,99692.52
2018-09-18T19:02:57.135Z,99705.92
2018-09-18T19:05:26.791Z,99705.34
2018-09-18T19:07:56.484Z,99706.92
2018-09-18T19:10:26.187Z,99704.15
2018-09-18T19:12:55.859Z,99704.36
2018-09-18T19:15:25.516Z,99710.02
2018-09-18T19:17:55.295Z,99708.39
2018-09-18T19:20:24.986Z,99705.03
2018-09-18T19:22:54.678Z,99709.94
2018-09-18T19:25:24.368Z,99711.50
2018-09-18T19:27:54.088Z,99717.70
2018-09-18T19:30:23.776Z,99722.88
2018-09-18T19:32:53.436Z,99720.09
2018-09-18T19:35:23.144Z,99723.86
2018-09-18T19:37:52.818Z,99722.96
2018-09-18T19:40:22.545Z,99730.84
2018-09-18T19:42:52.213Z,99729.14
2018-09-18T19:45:21.868Z,99734.48
2018-09-18T19:47:51.585Z,99735.99
2018-09-18T19:50:21.289Z,99743.02
2018-09-18T19:52:51.220Z,99746.77
2018-09-18T19:55:20.927Z,99755.16
2018-09-18T19:57:50.587Z,99755.50
2018-09-18T20:00:20.252Z,99757.64
2018-09-18T20:02:49.908Z,99757.20
2018-09-18T20:05:19.568Z,99763.66
2018-09-18T20:07:49.256Z,99766.20
2018-09-18T20:10:18.895Z,99770.70
2018-09-18T20:12:48.609Z,99768.34
2018-09-18T20:15:18.274Z,99769.95
2018-09-18T20:17:47.922Z,99771.75
2018-09-18T20:20:17.612Z,99775.26
2018-09-18T20:22:47.297Z,99781.60
2018-09-18T20:25:16.974Z,99777.34
2018-09-18T20:27:46.628Z,99786.30
2018-09-18T20:30:16.324Z,99791.50
2018-09-18T20:32:45.971Z,99792.56
2018-09-18T20:35:15.626Z,99794.41
2018-09-18T20:37:45.284Z,99795.77
2018-09-18T20:40:14.981Z,99797.89
2018-09-18T20:42:44.645Z,99794.73
2018-09-18T20:45:14.336Z,99798.94
2018-09-18T20:47:43.976Z,99803.94
2018-09-18T20:50:13.712Z,99802.20
2018-09-18T20:52:43.385Z,99805.64
2018-09-18T20:55:13.063Z,99818.22
2018-09-18T20:57:42.740Z,99816.22
2018-09-18T21:00:12.417Z,99818.19
2018-09-18T21:02:42.112Z,99823.49
2018-09-18T21:05:11.804Z,99825.25
2018-09-18T21:07:41.470Z,99831.05
2018-09-18T21:10:11.252Z,99828.07
2018-09-18T21:12:40.950Z,99824.84
2018-09-18T21:15:10.600Z,99824.59
2018-09-18T21:17:40.269Z,99823.73
2018-09-18T21:20:09.980Z,99832.51
2018-09-18T21:22:39.633Z,99836.60
2018-09-18T21:25:33.421Z,99842.48
2018-09-18T21:28:03.089Z,99844.65
2018-09-18T21:30:32.820Z,99852.44
2018-09-18T21:33:02.500Z,99861.98
2018-09-18T21:35:32.128Z,99860.08
2018-09-18T21:38:01.781Z,99862.59
2018-09-18T21:40:31.472Z,99864.47
2018-09-18T21:43:01.116Z,99869.97
2018-09-18T21:45:30.817Z,99877.96
2018-09-18T21:48:00.472Z,99885.34
2018-09-18T21:50:32.531Z,99892.06
2018-09-18T21:53:02.187Z,99890.09
2018-09-18T21:55:31.824Z,99889.36
2018-09-18T21:58:01.945Z,99895.83
2018-09-18T22:00:31.665Z,99898.91
2018-09-18T22:03:02.155Z,99904.55
2018-09-18T22:05:32.122Z,99906.30
2018-09-18T22:08:02.594Z,99910.39
2018-09-18T22:10:32.248Z,99907.91
2018-09-18T22:13:02.536Z,99913.82
2018-09-18T22:15:32.840Z,99919.95
2018-09-18T22:18:02.548Z,99925.74
2018-09-18T22:20:32.199Z,99921.27
2018-09-18T22:23:01.867Z,99929.02
2018-09-18T22:25:31.539Z,99932.80
2018-09-18T22:28:01.197Z,99939.49
2018-09-18T22:30:30.919Z,99941.48
2018-09-18T22:33:00.565Z,99949.17
2018-09-18T22:35:30.246Z,99954.91
2018-09-18T22:37:59.895Z,99953.72
2018-09-18T22:40:29.561Z,99958.62
2018-09-18T22:42:59.272Z,99961.28
2018-09-18T22:45:28.968Z,99966.32
2018-09-18T22:47:58.654Z,99967.14
2018-09-18T22:50:28.307Z,99968.20
2018-09-18T22:52:57.979Z,99964.39
2018-09-18T22:55:27.641Z,99977.86
2018-09-18T22:57:57.333Z,99976.81
2018-09-18T23:00:27.004Z,99982.94
2018-09-18T23:02:56.672Z,99984.12
2018-09-18T23:05:26.364Z,99985.48
2018-09-18T23:07:56.025Z,99987.73
2018-09-18T23:10:25.715Z,99985.05
2018-09-18T23:12:55.378Z,99993.45
2018-09-18T23:15:25.084Z,99994.44
2018-09-18T23:17:54.745Z,100000.05
2018-09-18T23:20:24.424Z,100001.03
2018-09-18T23:22:54.119Z,99993.98
2018-09-18T23:25:23.814Z,100003.37
2018-09-18T23:27:53.484Z,100004.08
2018-09-18T23:30:23.221Z,100001.07
2018-09-18T23:32:52.913Z,100000.82
2018-09-18T23:35:22.666Z,100005.68
2018-09-18T23:37:52.320Z,100005.39
2018-09-18T23:40:21.988Z,100013.09
2018-09-18T23:42:51.696Z,100009.63
2018-09-18T23:45:21.353Z,100011.81
2018-09-18T23:47:51.056Z,100013.33
2018-09-18T23:50:20.737Z,100015.34
2018-09-18T23:52:50.455Z,100016.58
2018-09-18T23:55:20.134Z,100014.67
2018-09-18T23:57:49.802Z,100013.45
